Dobrodošli na spletni strani vremenske postaje Senovo. Vse informacije so informativnega značaja, saj vremenska postaja ni del državne mreže meteoroloških postaj. AKTUALNIH OBVESTIL NI.


Sneg/Led Od: 21-02-2018 00:00 Do: 23-02-2018 23:59 Opozorilo za: Sneg/Led Stopnja: Rumena info button
Veter Od: 21-02-2018 00:00 Do: 22-02-2018 23:59 Opozorilo za: Veter Stopnja: Rumena info button

Pogled proti Armezu več informacij Pogled proti Armezu


Lisca več informacij Lisca


Radar strel več informacij blitzortung!


opozorilo za sneg/led več informacij rain snow radar


Obiščite še:

Template documentation
and downloads

And another site



Weather Underground, zgodovina - Tekstovno

Dnevni povzetek za Januar 14, 2017 Enote:  Angleško    Metrično   Obe
« Predhodni Dan
Naslednji Dan »
Dnevni Tedenski Mesečni Letni Po meri
  Višja: Nižja: Povprečje:
Temperatura: TemperatureC °F -6.0 °F -1.8 °F
Točka rosišča: DewpointC °F -7.1 °F -2.9 °F
Vlažnost: Humidity % 86 % 92 %
Hitrost vetra: WindSpeedKMH mph 0.0 mph 0.4 mph
Sunki vetra: WindSpeedGustKMH mph - -
Veter:- - South
Zračni tlak: PressurehPa in 998.9 in -
Padavine: 0.3 in    
Historical Graphs
 
 
Tabelarni podarki za Januar 14, 2017
Čas Temperatura Točka rosišča Zračni tlak Veter Hitrost vetra Sunki vetra Vlažnost Intenziteta padavin (urna)
TemperatureC °F DewpointC °F PressurehPa in Calm     Humidity % HourlyPrecipMM in
00:01 -0.1 °F -0.7 °F 999.9 in Calm     96 % 0.8 in
00:06 -0.3 °F -0.8 °F 999.9 in Calm     96 % 0.8 in
00:11 -0.3 °F -0.8 °F 999.9 in Calm     96 % 0.8 in
00:16 -0.3 °F -0.8 °F 999.9 in Calm     96 % 0.5 in
00:21 -0.2 °F -0.8 °F 999.9 in Calm     96 % 0.5 in
00:26 -0.3 °F -0.8 °F 998.9 in Calm     96 % 0.5 in
00:31 -0.3 °F -0.8 °F 998.9 in Calm     96 % 0.5 in
00:36 -0.3 °F -0.8 °F 998.9 in Calm     96 % 0.5 in
00:41 -0.3 °F -0.8 °F 999.9 in Calm     96 % 0.3 in
00:46 -0.3 °F -0.8 °F 999.9 in Calm     96 % 0.3 in
00:51 -0.3 °F -0.8 °F 999.9 in Calm     96 % 0.3 in
00:56 -0.3 °F -0.8 °F 999.9 in Calm     96 % 0.3 in
01:01 -0.3 °F -0.8 °F 999.9 in Calm     96 % 0.3 in
01:06 -0.3 °F -0.8 °F 999.9 in Calm     96 % 0.3 in
01:11 -0.4 °F -0.9 °F 1000.9 in Calm     96 % 0.0 in
01:16 -0.4 °F -0.9 °F 1000.9 in Calm     96 % 0.0 in
01:21 -0.3 °F -0.8 °F 1000.9 in Calm     96 % 0.0 in
01:26 -0.3 °F -0.8 °F 1000.9 in Calm     96 % 0.0 in
01:31 -0.3 °F -0.8 °F 1000.9 in Calm     96 % 0.0 in
01:36 -0.3 °F -0.8 °F 1000.9 in Calm     96 % 0.0 in
01:41 -0.3 °F -0.8 °F 1000.9 in Calm     96 % 0.0 in
01:47 -0.3 °F -0.8 °F 1000.9 in Calm     96 % 0.0 in
01:52 -0.3 °F -0.8 °F 1000.9 in Calm     96 % 0.0 in
01:57 -0.4 °F -0.9 °F 1000.9 in Calm     96 % 0.0 in
01:58 -0.4 °F -0.9 °F 1000.9 in Calm     96 % 0.0 in
02:03 -0.4 °F -0.9 °F 1000.9 in Calm     96 % 0.0 in
02:08 -0.5 °F -1.1 °F 1000.9 in Calm     96 % 0.0 in
02:13 -0.5 °F -1.1 °F 1001.9 in Calm     96 % 0.0 in
02:18 -0.5 °F -1.1 °F 1001.9 in Calm     96 % 0.0 in
02:23 -0.5 °F -1.1 °F 1001.9 in Calm     96 % 0.0 in
02:28 -0.5 °F -1.1 °F 1001.9 in Calm     96 % 0.0 in
02:33 -0.6 °F -1.3 °F 1001.9 in Calm     95 % 0.0 in
02:38 -0.6 °F -1.2 °F 1001.9 in Calm     96 % 0.0 in
02:43 -0.6 °F -1.2 °F 1002.9 in Calm     96 % 0.0 in
02:48 -0.7 °F -1.4 °F 1002.9 in Calm     95 % 0.0 in
02:53 -0.8 °F -1.5 °F 1002.9 in Calm     95 % 0.0 in
02:58 -0.8 °F -1.5 °F 1001.9 in Calm     95 % 0.0 in
03:03 -0.8 °F -1.5 °F 1001.9 in Calm     95 % 0.0 in
03:08 -0.9 °F -1.6 °F 1001.9 in Calm     95 % 0.0 in
03:13 -0.9 °F -1.6 °F 1001.9 in Calm     95 % 0.0 in
03:18 -0.9 °F -1.6 °F 1001.9 in Calm     95 % 0.0 in
03:23 -1.0 °F -1.6 °F 1001.9 in Calm     96 % 0.0 in
03:28 -1.0 °F -1.6 °F 1001.9 in Calm     96 % 0.0 in
03:33 -1.0 °F -1.6 °F 1001.9 in Calm     96 % 0.0 in
03:39 -1.1 °F -1.7 °F 1001.9 in Calm     96 % 0.0 in
03:44 -1.2 °F -1.8 °F 1000.9 in Calm     96 % 0.0 in
03:49 -1.2 °F -1.8 °F 1000.9 in Calm     96 % 0.0 in
03:54 -1.3 °F -1.8 °F 1000.9 in Calm     96 % 0.0 in
03:59 -1.3 °F -1.8 °F 1001.9 in Calm     96 % 0.0 in
04:04 -1.4 °F -2.1 °F 1001.9 in Calm     95 % 0.0 in
04:09 -1.5 °F -2.2 °F 1001.9 in Calm     95 % 0.0 in
04:14 -1.5 °F -2.2 °F 1001.9 in Calm     95 % 0.0 in
04:19 -1.6 °F -2.3 °F 1001.9 in Calm     95 % 0.0 in
04:24 -1.6 °F -2.3 °F 1001.9 in Calm     95 % 0.0 in
04:29 -1.7 °F -2.4 °F 1001.9 in Calm     95 % 0.0 in
04:34 -1.8 °F -2.5 °F 1001.9 in Calm     95 % 0.0 in
04:39 -1.9 °F -2.6 °F 1001.9 in Calm     95 % 0.0 in
04:44 -1.9 °F -2.6 °F 1001.9 in Calm     95 % 0.0 in
04:49 -2.1 °F -2.8 °F 1001.9 in Calm     95 % 0.0 in
04:54 -2.1 °F -2.8 °F 1001.9 in Calm     95 % 0.0 in
04:59 -2.3 °F -3.0 °F 1002.9 in Calm     95 % 0.0 in
05:04 -2.3 °F -3.0 °F 1002.9 in Calm     95 % 0.0 in
05:09 -2.5 °F -3.3 °F 1002.9 in Calm     94 % 0.0 in
05:14 -2.6 °F -3.4 °F 1002.9 in Calm     94 % 0.0 in
05:19 -2.7 °F -3.6 °F 1002.9 in Calm     94 % 0.0 in
05:24 -2.8 °F -3.6 °F 1002.9 in Calm     94 % 0.0 in
05:29 -2.9 °F -3.7 °F 1003.9 in Calm     94 % 0.0 in
05:34 -3.0 °F -3.8 °F 1003.9 in Calm     94 % 0.0 in
05:39 -3.0 °F -3.8 °F 1003.9 in Calm     94 % 0.0 in
05:44 -3.0 °F -3.8 °F 1003.9 in Calm     94 % 0.0 in
05:49 -3.0 °F -3.8 °F 1003.9 in Calm     94 % 0.0 in
05:54 -3.0 °F -3.8 °F 1003.9 in Calm     94 % 0.0 in
05:59 -2.9 °F -3.7 °F 1003.9 in Calm     94 % 0.0 in
06:04 -2.9 °F -3.7 °F 1003.9 in Calm     94 % 0.0 in
06:09 -2.8 °F -3.5 °F 1002.9 in Calm     95 % 0.0 in
06:14 -2.8 °F -3.5 °F 1002.9 in Calm     95 % 0.0 in
06:19 -2.8 °F -3.5 °F 1002.9 in Calm     95 % 0.0 in
06:24 -2.8 °F -3.5 °F 1003.9 in Calm     95 % 0.0 in
06:29 -2.7 °F -3.4 °F 1003.9 in Calm     95 % 0.0 in
06:34 -2.7 °F -3.4 °F 1003.9 in Calm     95 % 0.0 in
06:39 -2.6 °F -3.3 °F 1003.9 in Calm     95 % 0.0 in
06:44 -2.6 °F -3.3 °F 1003.9 in Calm     95 % 0.0 in
06:49 -2.5 °F -3.1 °F 1003.9 in Calm     96 % 0.0 in
06:54 -2.5 °F -3.1 °F 1005.0 in Calm     96 % 0.0 in
06:59 -2.5 °F -3.1 °F 1005.0 in Calm     96 % 0.0 in
07:04 -2.5 °F -3.1 °F 1005.0 in Calm     96 % 0.0 in
07:09 -2.5 °F -3.1 °F 1005.0 in Calm     96 % 0.0 in
07:14 -2.5 °F -3.1 °F 1005.0 in Calm     96 % 0.0 in
07:20 -2.5 °F -3.1 °F 1005.0 in Calm     96 % 0.0 in
07:25 -2.5 °F -3.1 °F 1005.0 in Calm     96 % 0.0 in
07:30 -2.4 °F -2.9 °F 1005.0 in Calm     96 % 0.0 in
07:35 -2.4 °F -2.9 °F 1005.0 in Calm     96 % 0.0 in
07:40 -2.4 °F -2.9 °F 1005.0 in Calm     96 % 0.0 in
07:45 -2.4 °F -2.9 °F 1005.0 in Calm     96 % 0.0 in
07:50 -2.4 °F -2.9 °F 1005.0 in Calm     96 % 0.0 in
07:55 -2.4 °F -2.9 °F 1006.0 in Calm     96 % 0.0 in
08:00 -2.3 °F -2.8 °F 1006.0 in Calm     96 % 0.0 in
08:05 -2.3 °F -2.8 °F 1006.0 in Calm     96 % 0.0 in
08:10 -2.3 °F -2.8 °F 1006.0 in Calm     96 % 0.0 in
08:15 -2.3 °F -2.8 °F 1006.0 in Calm     96 % 0.0 in
08:20 -2.3 °F -2.8 °F 1006.0 in Calm     96 % 0.0 in
08:25 -2.3 °F -2.8 °F 1006.0 in Calm     96 % 0.0 in
08:30 -2.3 °F -2.8 °F 1006.0 in Calm     96 % 0.0 in
08:35 -2.3 °F -2.8 °F 1006.0 in Calm     96 % 0.0 in
08:40 -2.2 °F -2.8 °F 1006.0 in Calm     96 % 0.0 in
08:45 -2.2 °F -2.8 °F 1006.0 in Calm     96 % 0.0 in
08:50 -2.1 °F -2.7 °F 1006.0 in Calm     96 % 0.0 in
08:55 -2.1 °F -2.7 °F 1005.0 in Calm     96 % 0.0 in
09:00 -2.0 °F -2.6 °F 1005.0 in Calm     96 % 0.0 in
09:05 -1.9 °F -2.6 °F 1005.0 in Calm     95 % 0.0 in
09:11 -1.8 °F -2.5 °F 1005.0 in Calm     95 % 0.0 in
09:16 -1.7 °F -2.4 °F 1005.0 in Calm     95 % 0.0 in
09:21 -1.6 °F -2.3 °F 1005.0 in Calm     95 % 0.0 in
09:26 -1.6 °F -2.3 °F 1006.0 in Calm     95 % 0.0 in
09:31 -1.5 °F -2.2 °F 1006.0 in Calm     95 % 0.0 in
09:36 -1.5 °F -2.2 °F 1006.0 in Calm     95 % 0.0 in
09:41 -1.5 °F -2.2 °F 1006.0 in Calm     95 % 0.0 in
09:46 -1.5 °F -2.2 °F 1006.0 in Calm     95 % 0.0 in
09:51 -1.5 °F -2.2 °F 1006.0 in Calm     95 % 0.0 in
09:56 -1.4 °F -2.1 °F 1006.0 in Calm     95 % 0.0 in
10:01 -1.1 °F -1.8 °F 1006.0 in Calm     95 % 0.0 in
10:06 -0.9 °F -1.6 °F 1006.0 in Calm     95 % 0.0 in
10:11 -0.6 °F -1.3 °F 1007.0 in Calm     95 % 0.0 in
10:16 -0.4 °F -1.1 °F 1007.0 in Calm     95 % 0.0 in
10:21 -0.2 °F -0.9 °F 1007.0 in Calm     95 % 0.0 in
10:26 -0.1 °F -0.8 °F 1007.0 in Calm     95 % 0.0 in
10:31 0.0 °F -0.7 °F 1007.0 in Calm     95 % 0.0 in
10:36 0.1 °F -0.6 °F 1007.0 in Calm     95 % 0.0 in
10:41 0.1 °F -0.6 °F 1007.0 in Calm     95 % 0.0 in
10:46 0.2 °F -0.5 °F 1007.0 in Calm     95 % 0.0 in
10:51 0.3 °F -0.4 °F 1007.0 in Calm     95 % 0.0 in
10:56 0.4 °F -0.3 °F 1007.0 in Calm     95 % 0.0 in
11:01 0.4 °F -0.3 °F 1007.0 in Calm     95 % 0.0 in
11:06 0.6 °F -0.1 °F 1007.0 in Calm     95 % 0.0 in
11:11 0.6 °F -0.1 °F 1007.0 in Calm     95 % 0.0 in
11:16 0.6 °F -0.1 °F 1007.0 in Calm     95 % 0.0 in
11:21 0.7 °F -0.2 °F 1007.0 in Calm     94 % 0.0 in
11:26 0.9 °F 0.2 °F 1007.0 in Calm     95 % 0.0 in
11:31 1.1 °F 0.2 °F 1007.0 in Calm     94 % 0.0 in
11:36 1.1 °F 0.2 °F 1007.0 in Calm     94 % 0.0 in
11:41 1.4 °F 0.4 °F 1007.0 in Calm     93 % 0.0 in
11:46 1.6 °F 0.6 °F 1007.0 in Calm     93 % 0.0 in
11:51 2.1 °F 1.1 °F 1007.0 in Calm     93 % 0.0 in
11:56 2.3 °F 1.3 °F 1007.0 in Calm     93 % 0.0 in
12:01 2.3 °F 1.1 °F 1007.0 in Calm     92 % 0.0 in
12:06 2.3 °F 1.1 °F 1007.0 in Calm     92 % 0.0 in
12:11 2.3 °F 1.0 °F 1007.0 in Calm     91 % 0.0 in
12:16 2.3 °F 1.0 °F 1007.0 in Calm     91 % 0.0 in
12:21 2.3 °F 0.8 °F 1007.0 in Calm     90 % 0.0 in
12:26 2.2 °F 0.7 °F 1006.0 in SSE 1.3 mph 5.8 mph 90 % 0.0 in
12:31 2.1 °F 0.6 °F 1006.0 in SSE 3.4 mph 6.1 mph 90 % 0.0 in
12:36 2.2 °F 0.7 °F 1006.0 in SSE 3.7 mph 6.1 mph 90 % 0.0 in
12:41 2.3 °F 0.7 °F 1006.0 in SSE 2.4 mph 5.0 mph 89 % 0.0 in
12:47 2.2 °F 0.6 °F 1006.0 in SSE 0.6 mph 4.0 mph 89 % 0.0 in
12:52 2.1 °F 0.6 °F 1006.0 in SSE 1.0 mph 5.8 mph 90 % 0.0 in
12:57 2.0 °F 0.4 °F 1006.0 in SSE 3.4 mph 6.4 mph 89 % 0.0 in
13:02 2.0 °F 0.4 °F 1006.0 in SSE 4.8 mph 7.9 mph 89 % 0.0 in
13:07 2.0 °F 0.4 °F 1006.0 in SSE 4.8 mph 7.9 mph 89 % 0.0 in
13:12 2.1 °F 0.5 °F 1006.0 in SSE 4.8 mph 6.9 mph 89 % 0.0 in
13:17 2.1 °F 0.5 °F 1006.0 in SSE 4.2 mph 5.5 mph 89 % 0.0 in
13:22 2.1 °F 0.5 °F 1006.0 in SSE 3.7 mph 5.5 mph 89 % 0.0 in
13:27 2.1 °F 0.3 °F 1006.0 in SSE 3.2 mph 5.5 mph 88 % 0.0 in
13:32 2.0 °F 0.4 °F 1006.0 in SSE 2.9 mph 5.0 mph 89 % 0.0 in
13:37 2.0 °F 0.2 °F 1006.0 in SSE 3.7 mph 6.1 mph 88 % 0.0 in
13:42 2.0 °F 0.2 °F 1006.0 in SSE 4.3 mph 6.1 mph 88 % 0.0 in
13:47 2.0 °F 0.2 °F 1006.0 in SSE 3.4 mph 5.5 mph 88 % 0.0 in
13:52 1.9 °F 0.1 °F 1006.0 in SSE 2.9 mph 4.7 mph 88 % 0.0 in
13:57 1.8 °F 0.0 °F 1006.0 in SSE 3.5 mph 6.1 mph 88 % 0.0 in
14:02 1.7 °F -0.1 °F 1006.0 in SSE 3.4 mph 6.1 mph 88 % 0.0 in
14:07 1.7 °F -0.1 °F 1006.0 in SSE 3.1 mph 6.1 mph 88 % 0.0 in
14:12 1.7 °F -0.1 °F 1006.0 in SSE 3.7 mph 6.1 mph 88 % 0.0 in
14:17 2.0 °F 0.2 °F 1006.0 in SSE 2.9 mph 5.8 mph 88 % 0.0 in
14:22 2.1 °F 0.3 °F 1006.0 in SSE 2.6 mph 5.5 mph 88 % 0.0 in
14:27 2.3 °F 0.5 °F 1006.0 in SSE 2.9 mph 5.5 mph 88 % 0.0 in
14:32 2.3 °F 0.5 °F 1006.0 in SSE 1.8 mph 4.7 mph 88 % 0.0 in
14:37 2.2 °F 0.4 °F 1006.0 in SSE 1.1 mph 4.7 mph 88 % 0.0 in
14:42 2.1 °F 0.3 °F 1006.0 in SSE 1.4 mph 4.7 mph 88 % 0.0 in
14:47 2.1 °F 0.3 °F 1006.0 in SSE 2.7 mph 5.0 mph 88 % 0.0 in
14:52 2.2 °F 0.4 °F 1006.0 in SSE 3.7 mph 5.0 mph 88 % 0.0 in
14:57 2.2 °F 0.3 °F 1006.0 in South 3.7 mph 5.0 mph 87 % 0.0 in
15:02 2.1 °F 0.2 °F 1006.0 in SSW 3.4 mph 4.7 mph 87 % 0.0 in
15:07 2.0 °F 0.1 °F 1006.0 in SW 2.6 mph 4.7 mph 87 % 0.0 in
15:12 1.8 °F -0.1 °F 1007.0 in WSW 1.3 mph 4.0 mph 87 % 0.0 in
15:17 1.6 °F -0.3 °F 1007.0 in West 0.3 mph 2.6 mph 87 % 0.0 in
15:23 1.3 °F -0.8 °F 1007.0 in Calm     86 % 0.0 in
15:28 1.0 °F -1.1 °F 1007.0 in Calm     86 % 0.0 in
15:33 0.8 °F -1.1 °F 1007.0 in Calm     87 % 0.0 in
15:38 0.5 °F -1.4 °F 1007.0 in Calm     87 % 0.0 in
15:43 0.2 °F -1.7 °F 1007.0 in Calm     87 % 0.0 in
15:48 0.1 °F -1.8 °F 1007.0 in Calm     87 % 0.0 in
15:53 -0.2 °F -1.9 °F 1007.0 in Calm   1.8 mph 88 % 0.0 in
15:58 -0.4 °F -2.2 °F 1007.0 in West 0.2 mph 1.8 mph 88 % 0.0 in
16:03 -0.5 °F -2.2 °F 1007.0 in West 0.2 mph 1.8 mph 88 % 0.0 in
16:08 -0.7 °F -2.4 °F 1007.0 in Calm     88 % 0.0 in
16:13 -1.0 °F -2.6 °F 1008.0 in Calm     89 % 0.0 in
16:18 -1.1 °F -2.7 °F 1008.0 in Calm     89 % 0.0 in
16:23 -1.3 °F -2.9 °F 1008.0 in Calm     89 % 0.0 in
16:28 -1.4 °F -3.0 °F 1008.0 in Calm     89 % 0.0 in
16:33 -1.5 °F -3.1 °F 1008.0 in Calm     89 % 0.0 in
16:38 -1.6 °F -3.2 °F 1008.0 in Calm     89 % 0.0 in
16:43 -1.7 °F -3.3 °F 1008.0 in Calm     89 % 0.0 in
16:48 -1.9 °F -3.4 °F 1008.0 in Calm     89 % 0.0 in
16:53 -2.1 °F -3.5 °F 1008.0 in Calm     90 % 0.0 in
16:58 -2.2 °F -3.6 °F 1008.0 in Calm     90 % 0.0 in
17:03 -2.3 °F -3.7 °F 1008.0 in Calm     90 % 0.0 in
17:08 -2.4 °F -3.8 °F 1008.0 in Calm     90 % 0.0 in
17:13 -2.6 °F -4.0 °F 1007.0 in Calm     90 % 0.0 in
17:19 -2.8 °F -4.2 °F 1007.0 in Calm     90 % 0.0 in
17:24 -2.8 °F -4.2 °F 1007.0 in Calm     90 % 0.0 in
17:29 -3.0 °F -4.4 °F 1008.0 in Calm     90 % 0.0 in
17:34 -3.1 °F -4.5 °F 1008.0 in Calm     90 % 0.0 in
17:39 -3.0 °F -4.4 °F 1008.0 in Calm     90 % 0.0 in
17:44 -3.2 °F -4.6 °F 1009.0 in Calm     90 % 0.0 in
17:49 -3.3 °F -4.7 °F 1009.0 in Calm     90 % 0.0 in
17:54 -3.3 °F -4.6 °F 1009.0 in Calm     91 % 0.0 in
17:59 -3.5 °F -4.8 °F 1009.0 in Calm     91 % 0.0 in
18:04 -3.6 °F -4.8 °F 1009.0 in Calm     91 % 0.0 in
18:08 -3.8 °F -5.2 °F 1009.0 in Calm     90 % 0.0 in
18:13 -3.9 °F -5.3 °F 1009.0 in Calm     90 % 0.0 in
18:18 -3.8 °F -5.2 °F 1009.0 in Calm     90 % 0.0 in
18:23 -4.0 °F -5.3 °F 1009.0 in Calm     91 % 0.0 in
18:28 -4.2 °F -5.4 °F 1009.0 in Calm     91 % 0.0 in
18:33 -4.2 °F -5.4 °F 1009.0 in Calm     91 % 0.0 in
18:38 -4.3 °F -5.6 °F 1009.0 in Calm     91 % 0.0 in
18:43 -4.4 °F -5.7 °F 1009.0 in Calm     91 % 0.0 in
18:48 -4.5 °F -5.7 °F 1009.0 in Calm     91 % 0.0 in
18:53 -4.5 °F -5.7 °F 1009.0 in Calm     91 % 0.0 in
18:58 -4.6 °F -5.8 °F 1009.0 in Calm     91 % 0.0 in
19:03 -4.7 °F -5.9 °F 1009.0 in Calm     91 % 0.0 in
19:08 -4.8 °F -6.1 °F 1009.0 in Calm     91 % 0.0 in
19:13 -4.9 °F -6.2 °F 1010.0 in Calm     91 % 0.0 in
19:18 -5.0 °F -6.2 °F 1010.0 in Calm     91 % 0.0 in
19:23 -5.1 °F -6.3 °F 1010.0 in Calm     91 % 0.0 in
19:28 -5.2 °F -6.4 °F 1010.0 in Calm     91 % 0.0 in
19:33 -5.3 °F -6.6 °F 1010.0 in Calm     91 % 0.0 in
19:38 -5.3 °F -6.6 °F 1010.0 in Calm     91 % 0.0 in
19:43 -5.5 °F -6.7 °F 1010.0 in Calm     91 % 0.0 in
19:48 -5.6 °F -6.8 °F 1010.0 in Calm     91 % 0.0 in
19:53 -5.4 °F -6.6 °F 1010.0 in Calm     91 % 0.0 in
19:58 -5.4 °F -6.6 °F 1011.1 in Calm     91 % 0.0 in
20:03 -5.5 °F -6.7 °F 1011.1 in Calm     91 % 0.0 in
20:08 -5.6 °F -6.8 °F 1011.1 in Calm     91 % 0.0 in
20:13 -5.6 °F -6.8 °F 1010.0 in Calm     91 % 0.0 in
20:18 -5.6 °F -6.8 °F 1010.0 in Calm     91 % 0.0 in
20:23 -5.7 °F -6.9 °F 1010.0 in Calm     91 % 0.0 in
20:28 -5.7 °F -6.9 °F 1009.0 in Calm     91 % 0.0 in
20:34 -5.7 °F -6.9 °F 1009.0 in Calm     91 % 0.0 in
20:39 -5.8 °F -7.1 °F 1009.0 in Calm     91 % 0.0 in
20:44 -5.8 °F -7.1 °F 1010.0 in Calm     91 % 0.0 in
20:49 -5.9 °F -7.1 °F 1010.0 in Calm     91 % 0.0 in
20:54 -5.8 °F -7.1 °F 1010.0 in Calm     91 % 0.0 in
20:59 -5.8 °F -7.1 °F 1010.0 in Calm     91 % 0.0 in
21:04 -5.8 °F -7.1 °F 1010.0 in Calm     91 % 0.0 in
21:09 -5.9 °F -7.1 °F 1010.0 in Calm     91 % 0.0 in
21:14 -5.9 °F -7.1 °F 1011.1 in Calm     91 % 0.0 in
21:19 -5.9 °F -7.1 °F 1011.1 in Calm     91 % 0.0 in
21:24 -5.9 °F -7.1 °F 1011.1 in Calm     91 % 0.0 in
21:29 -6.0 °F -7.1 °F 1012.1 in Calm     92 % 0.0 in
21:34 -6.0 °F -7.1 °F 1012.1 in Calm     92 % 0.0 in
21:39 -6.0 °F -7.1 °F 1012.1 in Calm     92 % 0.0 in
21:44 -6.0 °F -7.1 °F 1012.1 in Calm     92 % 0.0 in
21:49 -6.0 °F -7.1 °F 1012.1 in Calm     92 % 0.0 in
21:54 -6.0 °F -7.1 °F 1012.1 in Calm     92 % 0.0 in
21:59 -6.0 °F -7.1 °F 1012.1 in Calm     92 % 0.0 in
22:04 -6.0 °F -7.1 °F 1012.1 in Calm     92 % 0.0 in
22:09 -6.0 °F -7.1 °F 1013.1 in Calm     92 % 0.0 in
22:14 -6.0 °F -7.1 °F 1013.1 in Calm     92 % 0.0 in
22:20 -6.0 °F -7.1 °F 1013.1 in Calm     92 % 0.0 in
22:25 -6.0 °F -7.1 °F 1012.1 in Calm     92 % 0.0 in
22:30 -5.9 °F -7.1 °F 1012.1 in Calm     91 % 0.0 in
22:35 -5.9 °F -7.0 °F 1012.1 in Calm     92 % 0.0 in
22:40 -5.9 °F -7.0 °F 1012.1 in Calm     92 % 0.0 in
22:45 -5.9 °F -7.0 °F 1012.1 in Calm     92 % 0.0 in
22:50 -5.8 °F -6.9 °F 1012.1 in Calm     92 % 0.0 in
22:55 -5.9 °F -7.0 °F 1012.1 in Calm     92 % 0.0 in
23:00 -5.9 °F -7.0 °F 1012.1 in Calm     92 % 0.0 in
23:05 -5.9 °F -7.0 °F 1012.1 in Calm     92 % 0.0 in
23:10 -5.9 °F -7.0 °F 1012.1 in Calm     92 % 0.0 in
23:15 -5.9 °F -7.0 °F 1012.1 in Calm     92 % 0.0 in
23:20 -5.9 °F -7.0 °F 1012.1 in Calm     92 % 0.0 in
23:25 -5.8 °F -6.9 °F 1013.1 in Calm     92 % 0.0 in
23:30 -5.8 °F -6.9 °F 1013.1 in Calm     92 % 0.0 in
23:35 -5.8 °F -6.9 °F 1013.1 in Calm     92 % 0.0 in
23:40 -5.8 °F -6.9 °F 1013.1 in Calm     92 % 0.0 in
23:45 -5.8 °F -6.9 °F 1013.1 in Calm     92 % 0.0 in
23:50 -5.8 °F -6.9 °F 1013.1 in Calm     92 % 0.0 in
23:55 -5.8 °F -6.9 °F 1013.1 in Calm     92 % 0.0 in
Vremenska postaja Senovo
Podatki zbrani iz Weather Underground - 3 mb

Script developed by  Jim McMurry - jmcmurry@mwt.net Adapted for the template by  Wim van der Kuil - Leuven-Template.eu

Vremenski podatki so objavljeni na:

European Weather Network

WeatherCloud

Weather Underground

AWEKAS

HAMweather, WeatherForYou, PWS Weather

MapView

Geostik

Slovenia weather network

Oprema, ki se uporablja:

Vremenski program
Cumulus

Vremenski server
Asus

Cumulus

Asus